Terminal Aerodrome Forecast
Issued by NWS

Home | Current Version | Previous Version | Graphics & Text | Print | Product List | Glossary On
Versions: 1 2 3 4 5 6 7 8 9 10 11 12 13 14 15 16 17 18 19 20 21 22 23
000
FTUS41 KCLE 260530
TAFFDY
TAF
KFDY 260530Z 2606/2706 21012KT P6SM SCT050 BKN200
      TEMPO 2607/2609 2SM -TSRA BR BKN030CB
     FM261000 24012KT 6SM BR OVC030
     FM261500 30011KT P6SM OVC020
     FM262200 04015KT P6SM OVC020=

USA.gov is the U.S. government's official web portal to all federal, state and local government web resources and services.